Time,TemperatureF,DewpointF,PressureIn,WindDirection,WindDirectionDegrees,WindSpeedMPH,WindSpeedGustMPH,Humidity,HourlyPrecipIn,Conditions,Clouds,dailyrainin,SoftwareType,DateUTC
2013-01-21 00:16:00,18.2,8.8,30.23,West,270,4.0,12.0,66,0.00,,---,0.00,VWS V14.01,2013-01-21 05:16:00,
2013-01-21 00:31:00,18.2,8.4,30.22,West,275,8.0,13.0,65,0.00,,---,0.00,VWS V14.01,2013-01-21 05:31:00,
2013-01-21 00:46:00,18.0,8.9,30.22,WSW,252,6.0,15.0,67,0.00,,---,0.00,VWS V14.01,2013-01-21 05:46:00,
2013-01-21 01:01:00,17.2,8.1,30.21,WSW,257,6.0,11.0,67,0.00,,---,0.00,VWS V14.01,2013-01-21 06:01:00,
2013-01-21 01:16:00,17.3,8.6,30.20,WSW,248,8.0,12.0,68,0.00,,---,0.00,VWS V14.01,2013-01-21 06:16:00,
2013-01-21 01:31:00,17.1,8.4,30.21,WSW,257,10.0,16.0,68,0.00,,---,0.00,VWS V14.01,2013-01-21 06:31:00,
2013-01-21 01:46:00,17.0,7.6,30.20,West,265,6.0,13.0,66,0.00,,---,0.00,VWS V14.01,2013-01-21 06:46:00,
2013-01-21 02:01:00,16.9,7.8,30.20,WSW,254,7.0,13.0,67,0.00,,---,0.00,VWS V14.01,2013-01-21 07:01:00,
2013-01-21 02:16:00,16.8,7.8,30.20,SW,217,5.0,12.0,67,0.00,,---,0.00,VWS V14.01,2013-01-21 07:16:00,
2013-01-21 02:31:00,16.8,7.8,30.20,SW,217,5.0,5.0,67,0.00,,---,0.00,VWS V14.01,2013-01-21 07:31:00,
2013-01-21 02:46:00,16.7,8.0,30.20,West,273,9.0,15.0,68,0.00,,---,0.00,VWS V14.01,2013-01-21 07:46:00,
2013-01-21 03:01:00,16.4,7.0,30.19,West,269,9.0,15.0,66,0.00,,---,0.00,VWS V14.01,2013-01-21 08:01:00,
2013-01-21 03:16:00,16.3,6.6,30.19,SW,236,9.0,13.0,65,0.00,,---,0.00,VWS V14.01,2013-01-21 08:16:00,
2013-01-21 03:31:00,16.2,6.5,30.19,West,265,8.0,14.0,65,0.00,,---,0.00,VWS V14.01,2013-01-21 08:31:00,
2013-01-21 03:46:00,16.1,6.4,30.19,WNW,290,10.0,13.0,65,0.00,,---,0.00,VWS V14.01,2013-01-21 08:46:00,
2013-01-21 04:01:00,15.9,6.6,30.18,West,272,11.0,16.0,66,0.00,,---,0.00,VWS V14.01,2013-01-21 09:01:00,
2013-01-21 04:16:00,15.8,6.5,30.17,West,267,12.0,15.0,66,0.00,,---,0.00,VWS V14.01,2013-01-21 09:16:00,
2013-01-21 04:31:00,15.5,6.8,30.17,West,263,5.0,13.0,68,0.00,,---,0.00,VWS V14.01,2013-01-21 09:31:00,
2013-01-21 04:46:00,15.4,6.1,30.17,WSW,252,10.0,17.0,66,0.00,,---,0.00,VWS V14.01,2013-01-21 09:46:00,
2013-01-21 05:01:00,15.2,6.6,30.16,West,263,13.0,16.0,68,0.00,,---,0.00,VWS V14.01,2013-01-21 10:01:00,
2013-01-21 05:16:00,14.8,6.8,30.16,West,259,12.0,19.0,70,0.00,,---,0.00,VWS V14.01,2013-01-21 10:16:00,
2013-01-21 05:31:00,14.6,7.5,30.16,WSW,245,14.0,21.0,73,0.00,,---,0.00,VWS V14.01,2013-01-21 10:31:00,
2013-01-21 05:46:00,14.3,8.1,30.16,SW,236,5.0,20.0,76,0.00,,---,0.00,VWS V14.01,2013-01-21 10:46:00,
2013-01-21 06:01:00,14.1,7.9,30.16,West,265,13.0,20.0,76,0.00,,---,0.00,VWS V14.01,2013-01-21 11:01:00,
2013-01-21 06:16:00,13.6,7.7,30.15,West,274,10.0,19.0,77,0.00,,---,0.00,VWS V14.01,2013-01-21 11:16:00,
2013-01-21 06:31:00,13.6,8.0,30.15,West,273,7.0,16.0,78,0.00,,---,0.00,VWS V14.01,2013-01-21 11:31:00,
2013-01-21 06:46:00,13.3,8.0,30.15,West,271,6.0,15.0,79,0.00,,---,0.00,VWS V14.01,2013-01-21 11:46:00,
2013-01-21 07:01:00,13.5,7.4,30.16,West,279,8.0,16.0,76,0.00,,---,0.00,VWS V14.01,2013-01-21 12:01:00,
2013-01-21 07:16:00,13.3,7.4,30.16,West,281,7.0,18.0,77,0.00,,---,0.00,VWS V14.01,2013-01-21 12:16:00,
2013-01-21 07:31:00,13.0,8.0,30.16,WSW,248,8.0,16.0,80,0.00,,---,0.00,VWS V14.01,2013-01-21 12:31:00,
2013-01-21 07:46:00,12.4,8.8,30.15,WSW,250,4.0,15.0,85,0.00,,---,0.00,VWS V14.01,2013-01-21 12:46:00,
2013-01-21 08:01:00,12.2,8.8,30.15,WSW,253,11.0,15.0,86,0.00,,---,0.00,VWS V14.01,2013-01-21 13:01:00,
2013-01-21 08:16:00,11.8,8.4,30.15,WSW,256,10.0,16.0,86,0.00,,---,0.00,VWS V14.01,2013-01-21 13:16:00,
2013-01-21 08:31:00,11.2,8.4,30.15,WSW,255,8.0,17.0,88,0.00,,---,0.00,VWS V14.01,2013-01-21 13:31:00,
2013-01-21 08:46:00,11.2,8.6,30.15,WSW,240,7.0,15.0,89,0.00,,---,0.00,VWS V14.01,2013-01-21 13:46:00,
2013-01-21 09:01:00,11.5,8.1,30.16,WNW,290,8.0,18.0,86,0.00,,---,0.00,VWS V14.01,2013-01-21 14:01:00,
2013-01-21 09:16:00,12.0,7.8,30.16,West,265,9.0,17.0,83,0.00,,---,0.00,VWS V14.01,2013-01-21 14:16:00,
2013-01-21 09:31:00,11.5,7.6,30.17,West,261,12.0,24.0,84,0.00,,---,0.00,VWS V14.01,2013-01-21 14:31:00,
2013-01-21 09:46:00,12.2,7.5,30.17,West,271,9.0,18.0,81,0.00,,---,0.00,VWS V14.01,2013-01-21 14:46:00,
2013-01-21 10:01:00,12.2,6.4,30.17,WSW,256,11.0,18.0,77,0.00,,---,0.00,VWS V14.01,2013-01-21 15:01:00,
2013-01-21 10:16:00,12.1,6.6,30.17,SW,226,7.0,23.0,78,0.00,,---,0.00,VWS V14.01,2013-01-21 15:16:00,
2013-01-21 10:31:00,12.1,6.0,30.17,West,262,13.0,19.0,76,0.00,,---,0.00,VWS V14.01,2013-01-21 15:31:00,
2013-01-21 10:46:00,11.8,6.8,30.17,WSW,250,9.0,22.0,80,0.00,,---,0.00,VWS V14.01,2013-01-21 15:46:00,
2013-01-21 11:01:00,11.0,7.4,30.17,West,273,13.0,19.0,85,0.00,,---,0.00,VWS V14.01,2013-01-21 16:01:00,
2013-01-21 11:16:00,12.0,5.6,30.17,West,266,11.0,23.0,75,0.00,,---,0.00,VWS V14.01,2013-01-21 16:16:00,
2013-01-21 11:31:00,11.7,4.7,30.18,West,279,19.0,23.0,73,0.00,,---,0.00,VWS V14.01,2013-01-21 16:31:00,
2013-01-21 11:46:00,11.5,5.1,30.17,West,269,13.0,22.0,75,0.00,,---,0.00,VWS V14.01,2013-01-21 16:46:00,
2013-01-21 12:01:00,11.4,5.6,30.17,West,281,12.0,22.0,77,0.00,,---,0.00,VWS V14.01,2013-01-21 17:01:00,
2013-01-21 12:16:00,12.6,3.7,30.16,West,273,11.0,19.0,67,0.00,,---,0.00,VWS V14.01,2013-01-21 17:16:00,
2013-01-21 12:31:00,12.0,3.5,30.16,West,275,13.0,26.0,68,0.00,,---,0.00,VWS V14.01,2013-01-21 17:31:00,
2013-01-21 12:46:00,11.9,4.6,30.16,West,259,19.0,26.0,72,0.00,,---,0.00,VWS V14.01,2013-01-21 17:46:00,
2013-01-21 13:01:00,11.8,3.9,30.16,West,271,11.0,23.0,70,0.00,,---,0.00,VWS V14.01,2013-01-21 18:01:00,
2013-01-21 13:16:00,11.6,5.8,30.16,WSW,244,15.0,24.0,77,0.00,,---,0.00,VWS V14.01,2013-01-21 18:16:00,
2013-01-21 13:31:00,11.1,6.4,30.16,West,265,19.0,21.0,81,0.00,,---,0.00,VWS V14.01,2013-01-21 18:31:00,
2013-01-21 13:46:00,11.4,5.6,30.16,WSW,256,10.0,25.0,77,0.00,,---,0.00,VWS V14.01,2013-01-21 18:46:00,
2013-01-21 14:01:00,10.5,5.8,30.17,WNW,284,11.0,24.0,81,0.00,,---,0.00,VWS V14.01,2013-01-21 19:01:00,
2013-01-21 14:16:00,10.1,5.4,30.17,West,263,10.0,21.0,81,0.00,,---,0.00,VWS V14.01,2013-01-21 19:16:00,
2013-01-21 14:31:00,11.0,4.9,30.17,West,267,10.0,24.0,76,0.00,,---,0.00,VWS V14.01,2013-01-21 19:31:00,
2013-01-21 14:46:00,10.2,5.5,30.18,West,277,12.0,23.0,81,0.00,,---,0.00,VWS V14.01,2013-01-21 19:46:00,
2013-01-21 15:01:00,9.3,6.0,30.18,West,273,14.0,20.0,86,0.00,,---,0.00,VWS V14.01,2013-01-21 20:01:00,
2013-01-21 15:16:00,9.5,4.3,30.18,West,273,12.0,25.0,79,0.00,,---,0.00,VWS V14.01,2013-01-21 20:16:00,
2013-01-21 15:31:00,9.2,4.8,30.19,West,265,10.0,22.0,82,0.00,,---,0.00,VWS V14.01,2013-01-21 20:31:00,
2013-01-21 15:46:00,9.1,4.7,30.19,West,271,13.0,22.0,82,0.00,,---,0.00,VWS V14.01,2013-01-21 20:46:00,
2013-01-21 16:01:00,9.0,5.2,30.20,WNW,284,17.0,21.0,84,0.00,,---,0.00,VWS V14.01,2013-01-21 21:01:00,
2013-01-21 16:16:00,9.0,4.9,30.20,West,261,6.0,22.0,83,0.00,,---,0.00,VWS V14.01,2013-01-21 21:16:00,
2013-01-21 16:31:00,8.6,5.3,30.20,West,264,8.0,21.0,86,0.00,,---,0.00,VWS V14.01,2013-01-21 21:31:00,
2013-01-21 16:46:00,8.9,5.6,30.20,West,273,8.0,17.0,86,0.00,,---,0.00,VWS V14.01,2013-01-21 21:46:00,
2013-01-21 17:01:00,9.0,4.6,30.20,WNW,291,7.0,19.0,82,0.00,,---,0.00,VWS V14.01,2013-01-21 22:01:00,
2013-01-21 17:16:00,8.9,5.3,30.21,West,278,12.0,17.0,85,0.00,,---,0.00,VWS V14.01,2013-01-21 22:16:00,
2013-01-21 17:31:00,9.0,5.2,30.21,WNW,285,14.0,16.0,84,0.00,,---,0.00,VWS V14.01,2013-01-21 22:31:00,
2013-01-21 17:46:00,8.6,5.5,30.22,West,261,7.0,16.0,87,0.00,,---,0.00,VWS V14.01,2013-01-21 22:46:00,
2013-01-21 18:01:00,8.6,5.8,30.22,West,268,10.0,15.0,88,0.00,,---,0.00,VWS V14.01,2013-01-21 23:01:00,
2013-01-21 18:16:00,8.8,5.7,30.21,West,274,6.0,16.0,87,0.00,,---,0.00,VWS V14.01,2013-01-21 23:16:00,
2013-01-21 18:31:00,8.9,5.6,30.22,WSW,257,14.0,16.0,86,0.00,,---,0.00,VWS V14.01,2013-01-21 23:31:00,
2013-01-21 18:46:00,8.7,5.4,30.22,West,269,8.0,19.0,86,0.00,,---,0.00,VWS V14.01,2013-01-21 23:46:00,
2013-01-21 19:01:00,8.9,5.3,30.22,West,279,13.0,17.0,85,0.00,,---,0.00,VWS V14.01,2013-01-22 00:01:00,
2013-01-21 19:16:00,9.1,5.0,30.22,WNW,283,10.0,16.0,83,0.00,,---,0.00,VWS V14.01,2013-01-22 00:16:00,
2013-01-21 19:31:00,9.2,4.6,30.22,West,273,7.0,17.0,81,0.00,,---,0.00,VWS V14.01,2013-01-22 00:31:00,
2013-01-21 19:46:00,9.1,4.5,30.22,West,275,11.0,21.0,81,0.00,,---,0.00,VWS V14.01,2013-01-22 00:46:00,
2013-01-21 20:01:00,9.2,4.3,30.23,West,272,6.0,17.0,80,0.00,,---,0.00,VWS V14.01,2013-01-22 01:01:00,
2013-01-21 20:16:00,8.6,4.8,30.23,West,276,7.0,17.0,84,0.00,,---,0.00,VWS V14.01,2013-01-22 01:16:00,
2013-01-21 20:31:00,8.7,5.4,30.23,West,275,6.0,20.0,86,0.00,,---,0.00,VWS V14.01,2013-01-22 01:31:00,
2013-01-21 20:46:00,8.7,5.1,30.23,West,267,11.0,16.0,85,0.00,,---,0.00,VWS V14.01,2013-01-22 01:46:00,
2013-01-21 21:01:00,8.6,5.0,30.23,West,268,12.0,17.0,85,0.00,,---,0.00,VWS V14.01,2013-01-22 02:01:00,
2013-01-21 21:16:00,8.5,4.9,30.24,WNW,285,10.0,17.0,85,0.00,,---,0.00,VWS V14.01,2013-01-22 02:16:00,
2013-01-21 21:31:00,8.4,5.1,30.24,West,271,16.0,20.0,86,0.00,,---,0.00,VWS V14.01,2013-01-22 02:31:00,
2013-01-21 21:46:00,8.4,5.3,30.25,West,271,6.0,16.0,87,0.00,,---,0.00,VWS V14.01,2013-01-22 02:46:00,
2013-01-21 22:01:00,8.3,5.2,30.25,WNW,290,4.0,16.0,87,0.00,,---,0.00,VWS V14.01,2013-01-22 03:01:00,
2013-01-21 22:16:00,8.2,5.1,30.25,West,275,13.0,17.0,87,0.00,,---,0.00,VWS V14.01,2013-01-22 03:16:00,
2013-01-21 22:31:00,8.0,4.9,30.25,West,275,12.0,16.0,87,0.00,,---,0.00,VWS V14.01,2013-01-22 03:31:00,
2013-01-21 22:46:00,7.9,5.1,30.26,West,266,13.0,16.0,88,0.00,,---,0.00,VWS V14.01,2013-01-22 03:46:00,
2013-01-21 23:01:00,7.5,4.7,30.26,West,271,11.0,18.0,88,0.00,,---,0.00,VWS V14.01,2013-01-22 04:01:00,
2013-01-21 23:16:00,7.6,5.0,30.27,WNW,282,9.0,17.0,89,0.00,,---,0.00,VWS V14.01,2013-01-22 04:16:00,
2013-01-21 23:31:00,7.3,4.5,30.27,West,272,15.0,17.0,88,0.00,,---,0.00,VWS V14.01,2013-01-22 04:31:00,
2013-01-21 23:46:00,7.3,4.8,30.27,WNW,287,7.0,17.0,89,0.00,,---,0.00,VWS V14.01,2013-01-22 04:46:00,